sensor_id;sensor_type;location;lat;lon;timestamp;temperature;humidity
2751;DHT22;1383;48.362;10.908;2022-08-03T00:00:23;20.40;68.10
2751;DHT22;1383;48.362;10.908;2022-08-03T00:02:52;20.50;68.40
2751;DHT22;1383;48.362;10.908;2022-08-03T00:05:19;20.40;68.60
2751;DHT22;1383;48.362;10.908;2022-08-03T00:07:45;20.30;69.10
2751;DHT22;1383;48.362;10.908;2022-08-03T00:10:15;20.30;69.90
2751;DHT22;1383;48.362;10.908;2022-08-03T00:12:42;20.30;70.50
2751;DHT22;1383;48.362;10.908;2022-08-03T00:15:09;20.40;69.70
2751;DHT22;1383;48.362;10.908;2022-08-03T00:17:43;20.30;69.60
2751;DHT22;1383;48.362;10.908;2022-08-03T00:20:20;20.30;69.60
2751;DHT22;1383;48.362;10.908;2022-08-03T00:22:48;20.40;68.60
2751;DHT22;1383;48.362;10.908;2022-08-03T00:25:15;20.30;69.30
2751;DHT22;1383;48.362;10.908;2022-08-03T00:27:42;20.10;69.70
2751;DHT22;1383;48.362;10.908;2022-08-03T00:30:09;20.10;71.10
2751;DHT22;1383;48.362;10.908;2022-08-03T00:32:36;20.00;70.60
2751;DHT22;1383;48.362;10.908;2022-08-03T00:35:09;20.10;70.30
2751;DHT22;1383;48.362;10.908;2022-08-03T00:37:57;20.00;70.90
2751;DHT22;1383;48.362;10.908;2022-08-03T00:40:24;20.00;71.20
2751;DHT22;1383;48.362;10.908;2022-08-03T00:42:59;19.90;70.90
2751;DHT22;1383;48.362;10.908;2022-08-03T00:45:31;19.90;70.90
2751;DHT22;1383;48.362;10.908;2022-08-03T00:47:59;19.90;71.20
2751;DHT22;1383;48.362;10.908;2022-08-03T00:50:28;19.90;71.70
2751;DHT22;1383;48.362;10.908;2022-08-03T00:52:58;19.80;72.20
2751;DHT22;1383;48.362;10.908;2022-08-03T00:55:25;19.80;71.90
2751;DHT22;1383;48.362;10.908;2022-08-03T00:57:53;19.70;72.20
2751;DHT22;1383;48.362;10.908;2022-08-03T01:00:22;19.80;71.80
2751;DHT22;1383;48.362;10.908;2022-08-03T01:02:50;19.70;71.40
2751;DHT22;1383;48.362;10.908;2022-08-03T01:05:18;19.70;71.40
2751;DHT22;1383;48.362;10.908;2022-08-03T01:10:52;19.60;72.20
2751;DHT22;1383;48.362;10.908;2022-08-03T01:14:14;19.50;72.70
2751;DHT22;1383;48.362;10.908;2022-08-03T01:16:56;19.40;73.30
2751;DHT22;1383;48.362;10.908;2022-08-03T01:19:40;19.40;74.20
2751;DHT22;1383;48.362;10.908;2022-08-03T01:28:28;19.40;74.30
2751;DHT22;1383;48.362;10.908;2022-08-03T01:31:03;19.40;74.40
2751;DHT22;1383;48.362;10.908;2022-08-03T01:33:35;19.50;74.30
2751;DHT22;1383;48.362;10.908;2022-08-03T01:36:04;19.50;73.70
2751;DHT22;1383;48.362;10.908;2022-08-03T01:38:35;19.60;72.70
2751;DHT22;1383;48.362;10.908;2022-08-03T01:41:09;19.60;72.50
2751;DHT22;1383;48.362;10.908;2022-08-03T01:43:39;19.40;72.60
2751;DHT22;1383;48.362;10.908;2022-08-03T01:46:29;19.40;73.10
2751;DHT22;1383;48.362;10.908;2022-08-03T01:48:57;19.20;73.50
2751;DHT22;1383;48.362;10.908;2022-08-03T01:51:25;19.20;74.50
2751;DHT22;1383;48.362;10.908;2022-08-03T01:54:13;19.20;75.10
2751;DHT22;1383;48.362;10.908;2022-08-03T01:56:42;19.20;74.50
2751;DHT22;1383;48.362;10.908;2022-08-03T01:59:10;19.20;74.20
2751;DHT22;1383;48.362;10.908;2022-08-03T02:01:39;19.20;74.20
2751;DHT22;1383;48.362;10.908;2022-08-03T02:04:27;19.10;75.10
2751;DHT22;1383;48.362;10.908;2022-08-03T02:06:55;19.00;76.10
2751;DHT22;1383;48.362;10.908;2022-08-03T02:09:29;19.00;76.70
2751;DHT22;1383;48.362;10.908;2022-08-03T02:11:56;19.00;76.20
2751;DHT22;1383;48.362;10.908;2022-08-03T02:14:25;19.00;75.70
2751;DHT22;1383;48.362;10.908;2022-08-03T02:16:54;19.10;76.10
2751;DHT22;1383;48.362;10.908;2022-08-03T02:19:22;19.10;75.10
2751;DHT22;1383;48.362;10.908;2022-08-03T02:21:50;19.10;74.80
2751;DHT22;1383;48.362;10.908;2022-08-03T02:24:28;19.00;75.60
2751;DHT22;1383;48.362;10.908;2022-08-03T02:26:56;18.90;75.60
2751;DHT22;1383;48.362;10.908;2022-08-03T02:29:26;18.90;75.70
2751;DHT22;1383;48.362;10.908;2022-08-03T02:32:09;18.90;75.80
2751;DHT22;1383;48.362;10.908;2022-08-03T02:34:39;18.90;75.80
2751;DHT22;1383;48.362;10.908;2022-08-03T02:37:07;18.80;75.80
2751;DHT22;1383;48.362;10.908;2022-08-03T02:39:34;18.90;75.80
2751;DHT22;1383;48.362;10.908;2022-08-03T02:42:02;18.80;75.70
2751;DHT22;1383;48.362;10.908;2022-08-03T02:44:32;18.80;76.00
2751;DHT22;1383;48.362;10.908;2022-08-03T02:47:03;18.80;75.60
2751;DHT22;1383;48.362;10.908;2022-08-03T02:49:30;18.70;75.80
2751;DHT22;1383;48.362;10.908;2022-08-03T02:52:18;18.70;75.50
2751;DHT22;1383;48.362;10.908;2022-08-03T02:54:49;18.70;77.20
2751;DHT22;1383;48.362;10.908;2022-08-03T02:57:18;18.60;76.80
2751;DHT22;1383;48.362;10.908;2022-08-03T02:59:46;18.70;76.80
2751;DHT22;1383;48.362;10.908;2022-08-03T03:02:14;18.70;76.80
2751;DHT22;1383;48.362;10.908;2022-08-03T03:04:43;18.60;76.00
2751;DHT22;1383;48.362;10.908;2022-08-03T03:07:32;18.60;75.50
2751;DHT22;1383;48.362;10.908;2022-08-03T03:10:17;18.60;76.00
2751;DHT22;1383;48.362;10.908;2022-08-03T03:12:45;18.50;75.90
2751;DHT22;1383;48.362;10.908;2022-08-03T03:15:12;18.60;75.90
2751;DHT22;1383;48.362;10.908;2022-08-03T03:17:41;18.50;75.20
2751;DHT22;1383;48.362;10.908;2022-08-03T03:20:09;18.40;76.10
2751;DHT22;1383;48.362;10.908;2022-08-03T03:22:37;18.30;76.80
2751;DHT22;1383;48.362;10.908;2022-08-03T03:25:05;18.20;77.60
2751;DHT22;1383;48.362;10.908;2022-08-03T03:27:33;18.20;78.40
2751;DHT22;1383;48.362;10.908;2022-08-03T03:30:02;18.20;79.00
2751;DHT22;1383;48.362;10.908;2022-08-03T03:32:29;18.10;78.40
2751;DHT22;1383;48.362;10.908;2022-08-03T03:34:57;18.10;77.80
2751;DHT22;1383;48.362;10.908;2022-08-03T03:37:27;18.20;77.00
2751;DHT22;1383;48.362;10.908;2022-08-03T03:39:54;18.20;76.70
2751;DHT22;1383;48.362;10.908;2022-08-03T03:42:21;18.20;77.40
2751;DHT22;1383;48.362;10.908;2022-08-03T03:44:48;18.20;77.40
2751;DHT22;1383;48.362;10.908;2022-08-03T03:47:15;18.20;76.20
2751;DHT22;1383;48.362;10.908;2022-08-03T03:49:42;18.20;76.00
2751;DHT22;1383;48.362;10.908;2022-08-03T03:52:10;18.20;76.10
2751;DHT22;1383;48.362;10.908;2022-08-03T03:54:44;18.20;76.10
2751;DHT22;1383;48.362;10.908;2022-08-03T03:57:11;18.10;76.60
2751;DHT22;1383;48.362;10.908;2022-08-03T03:59:40;18.10;76.70
2751;DHT22;1383;48.362;10.908;2022-08-03T04:02:08;18.10;77.40
2751;DHT22;1383;48.362;10.908;2022-08-03T04:04:36;18.10;77.40
2751;DHT22;1383;48.362;10.908;2022-08-03T04:07:24;18.10;78.20
2751;DHT22;1383;48.362;10.908;2022-08-03T04:10:16;18.10;78.70
2751;DHT22;1383;48.362;10.908;2022-08-03T04:13:06;18.10;78.50
2751;DHT22;1383;48.362;10.908;2022-08-03T04:15:37;18.10;78.20
2751;DHT22;1383;48.362;10.908;2022-08-03T04:18:08;18.20;77.50
2751;DHT22;1383;48.362;10.908;2022-08-03T04:20:36;18.20;77.50
2751;DHT22;1383;48.362;10.908;2022-08-03T04:23:05;18.20;77.50
2751;DHT22;1383;48.362;10.908;2022-08-03T04:25:42;18.20;76.30
2751;DHT22;1383;48.362;10.908;2022-08-03T04:28:10;18.20;75.90
2751;DHT22;1383;48.362;10.908;2022-08-03T04:30:58;18.20;75.90
2751;DHT22;1383;48.362;10.908;2022-08-03T04:33:27;18.10;76.60
2751;DHT22;1383;48.362;10.908;2022-08-03T04:35:57;18.10;77.40
2751;DHT22;1383;48.362;10.908;2022-08-03T04:38:30;18.20;77.30
2751;DHT22;1383;48.362;10.908;2022-08-03T04:40:59;18.30;76.40
2751;DHT22;1383;48.362;10.908;2022-08-03T04:43:27;18.30;76.10
2751;DHT22;1383;48.362;10.908;2022-08-03T04:45:55;18.30;76.10
2751;DHT22;1383;48.362;10.908;2022-08-03T04:48:23;18.40;75.60
2751;DHT22;1383;48.362;10.908;2022-08-03T04:50:50;18.50;75.10
2751;DHT22;1383;48.362;10.908;2022-08-03T04:53:17;18.50;75.20
2751;DHT22;1383;48.362;10.908;2022-08-03T04:55:45;18.60;75.10
2751;DHT22;1383;48.362;10.908;2022-08-03T04:58:12;18.60;74.60
2751;DHT22;1383;48.362;10.908;2022-08-03T05:00:39;18.70;73.70
2751;DHT22;1383;48.362;10.908;2022-08-03T05:03:05;18.80;73.10
2751;DHT22;1383;48.362;10.908;2022-08-03T05:05:51;18.80;72.90
2751;DHT22;1383;48.362;10.908;2022-08-03T05:08:26;18.90;72.20
2751;DHT22;1383;48.362;10.908;2022-08-03T05:10:54;19.00;71.80
2751;DHT22;1383;48.362;10.908;2022-08-03T05:13:24;19.10;70.90
2751;DHT22;1383;48.362;10.908;2022-08-03T05:15:51;19.20;70.90
2751;DHT22;1383;48.362;10.908;2022-08-03T05:18:18;19.40;69.30
2751;DHT22;1383;48.362;10.908;2022-08-03T05:20:45;19.40;68.60
2751;DHT22;1383;48.362;10.908;2022-08-03T05:23:12;19.50;67.90
2751;DHT22;1383;48.362;10.908;2022-08-03T05:25:39;19.60;67.10
2751;DHT22;1383;48.362;10.908;2022-08-03T05:28:15;19.70;66.30
2751;DHT22;1383;48.362;10.908;2022-08-03T05:30:42;19.80;65.90
2751;DHT22;1383;48.362;10.908;2022-08-03T05:33:09;20.00;64.90
2751;DHT22;1383;48.362;10.908;2022-08-03T05:35:36;20.10;63.90
2751;DHT22;1383;48.362;10.908;2022-08-03T05:38:25;20.20;63.00
2751;DHT22;1383;48.362;10.908;2022-08-03T05:40:58;20.40;61.70
2751;DHT22;1383;48.362;10.908;2022-08-03T05:43:45;20.60;60.60
2751;DHT22;1383;48.362;10.908;2022-08-03T05:46:12;20.90;59.40
2751;DHT22;1383;48.362;10.908;2022-08-03T05:48:40;21.10;58.70
2751;DHT22;1383;48.362;10.908;2022-08-03T05:51:09;21.40;57.70
2751;DHT22;1383;48.362;10.908;2022-08-03T05:53:38;21.80;56.70
2751;DHT22;1383;48.362;10.908;2022-08-03T05:56:05;22.30;54.70
2751;DHT22;1383;48.362;10.908;2022-08-03T05:58:45;22.70;53.00
2751;DHT22;1383;48.362;10.908;2022-08-03T06:01:17;23.10;50.50
2751;DHT22;1383;48.362;10.908;2022-08-03T06:03:44;23.50;49.80
2751;DHT22;1383;48.362;10.908;2022-08-03T06:06:12;23.70;49.10
2751;DHT22;1383;48.362;10.908;2022-08-03T06:08:39;23.90;47.50
2751;DHT22;1383;48.362;10.908;2022-08-03T06:11:06;24.30;46.50
2751;DHT22;1383;48.362;10.908;2022-08-03T06:13:34;24.50;45.40
2751;DHT22;1383;48.362;10.908;2022-08-03T06:16:01;24.70;43.90
2751;DHT22;1383;48.362;10.908;2022-08-03T06:18:28;24.90;43.60
2751;DHT22;1383;48.362;10.908;2022-08-03T06:20:55;25.10;43.00
2751;DHT22;1383;48.362;10.908;2022-08-03T06:23:22;25.20;43.00
2751;DHT22;1383;48.362;10.908;2022-08-03T06:26:08;25.50;42.30
2751;DHT22;1383;48.362;10.908;2022-08-03T06:28:39;25.60;42.40
2751;DHT22;1383;48.362;10.908;2022-08-03T06:31:21;25.90;41.20
2751;DHT22;1383;48.362;10.908;2022-08-03T06:33:49;26.10;40.80
2751;DHT22;1383;48.362;10.908;2022-08-03T06:36:36;26.40;40.20
2751;DHT22;1383;48.362;10.908;2022-08-03T06:39:03;26.80;38.90
2751;DHT22;1383;48.362;10.908;2022-08-03T06:41:30;27.00;37.50
2751;DHT22;1383;48.362;10.908;2022-08-03T06:44:03;27.30;37.40
2751;DHT22;1383;48.362;10.908;2022-08-03T06:46:30;27.70;36.40
2751;DHT22;1383;48.362;10.908;2022-08-03T06:48:57;28.00;34.60
2751;DHT22;1383;48.362;10.908;2022-08-03T06:51:25;27.60;34.00
2751;DHT22;1383;48.362;10.908;2022-08-03T06:54:12;27.80;34.20
2751;DHT22;1383;48.362;10.908;2022-08-03T06:56:39;28.10;33.70
2751;DHT22;1383;48.362;10.908;2022-08-03T06:59:05;28.30;33.40
2751;DHT22;1383;48.362;10.908;2022-08-03T07:01:32;28.70;33.40
2751;DHT22;1383;48.362;10.908;2022-08-03T07:03:59;29.10;31.40
2751;DHT22;1383;48.362;10.908;2022-08-03T07:06:26;29.40;31.70
2751;DHT22;1383;48.362;10.908;2022-08-03T07:08:53;28.50;30.30
2751;DHT22;1383;48.362;10.908;2022-08-03T07:11:25;28.80;30.70
2751;DHT22;1383;48.362;10.908;2022-08-03T07:13:52;28.20;30.00
2751;DHT22;1383;48.362;10.908;2022-08-03T07:16:18;28.40;30.30
2751;DHT22;1383;48.362;10.908;2022-08-03T07:18:45;28.20;30.50
2751;DHT22;1383;48.362;10.908;2022-08-03T07:21:12;28.40;30.80
2751;DHT22;1383;48.362;10.908;2022-08-03T07:23:41;28.60;29.90
2751;DHT22;1383;48.362;10.908;2022-08-03T07:26:08;29.00;29.50
2751;DHT22;1383;48.362;10.908;2022-08-03T07:28:35;29.30;28.80
2751;DHT22;1383;48.362;10.908;2022-08-03T07:31:01;29.30;28.80
2751;DHT22;1383;48.362;10.908;2022-08-03T07:33:28;29.80;28.50
2751;DHT22;1383;48.362;10.908;2022-08-03T07:35:55;30.10;27.10
2751;DHT22;1383;48.362;10.908;2022-08-03T07:38:22;30.20;27.00
2751;DHT22;1383;48.362;10.908;2022-08-03T07:40:49;30.40;26.10
2751;DHT22;1383;48.362;10.908;2022-08-03T07:43:16;30.70;26.40
2751;DHT22;1383;48.362;10.908;2022-08-03T07:45:43;31.00;26.20
2751;DHT22;1383;48.362;10.908;2022-08-03T07:48:10;30.90;25.40
2751;DHT22;1383;48.362;10.908;2022-08-03T07:50:38;30.50;25.80
2751;DHT22;1383;48.362;10.908;2022-08-03T07:53:04;30.80;26.20
2751;DHT22;1383;48.362;10.908;2022-08-03T07:55:31;31.20;25.30
2751;DHT22;1383;48.362;10.908;2022-08-03T07:58:04;31.50;25.30
2751;DHT22;1383;48.362;10.908;2022-08-03T08:00:31;31.60;24.30
2751;DHT22;1383;48.362;10.908;2022-08-03T08:02:58;30.70;25.70
2751;DHT22;1383;48.362;10.908;2022-08-03T08:05:26;30.40;25.90
2751;DHT22;1383;48.362;10.908;2022-08-03T08:07:53;30.20;26.70
2751;DHT22;1383;48.362;10.908;2022-08-03T08:10:20;30.90;26.10
2751;DHT22;1383;48.362;10.908;2022-08-03T08:12:47;31.90;24.70
2751;DHT22;1383;48.362;10.908;2022-08-03T08:15:14;32.50;23.00
2751;DHT22;1383;48.362;10.908;2022-08-03T08:17:46;32.20;22.90
2751;DHT22;1383;48.362;10.908;2022-08-03T08:20:18;32.50;22.20
2751;DHT22;1383;48.362;10.908;2022-08-03T08:22:55;32.00;22.50
2751;DHT22;1383;48.362;10.908;2022-08-03T08:25:24;32.30;23.00
2751;DHT22;1383;48.362;10.908;2022-08-03T08:27:52;33.10;22.40
2751;DHT22;1383;48.362;10.908;2022-08-03T08:30:38;33.10;21.90
2751;DHT22;1383;48.362;10.908;2022-08-03T08:33:05;32.50;20.60
2751;DHT22;1383;48.362;10.908;2022-08-03T08:35:36;32.70;21.00
2751;DHT22;1383;48.362;10.908;2022-08-03T08:38:03;32.90;20.50
2751;DHT22;1383;48.362;10.908;2022-08-03T08:40:31;33.20;20.20
2751;DHT22;1383;48.362;10.908;2022-08-03T08:42:58;33.50;19.50
2751;DHT22;1383;48.362;10.908;2022-08-03T08:45:25;33.50;19.70
2751;DHT22;1383;48.362;10.908;2022-08-03T08:47:54;33.30;19.40
2751;DHT22;1383;48.362;10.908;2022-08-03T08:50:28;33.80;18.90
2751;DHT22;1383;48.362;10.908;2022-08-03T08:52:55;33.10;18.50
2751;DHT22;1383;48.362;10.908;2022-08-03T08:55:25;32.90;18.00
2751;DHT22;1383;48.362;10.908;2022-08-03T08:58:00;32.90;18.60
2751;DHT22;1383;48.362;10.908;2022-08-03T09:00:27;32.70;18.60
2751;DHT22;1383;48.362;10.908;2022-08-03T09:02:56;33.20;18.40
2751;DHT22;1383;48.362;10.908;2022-08-03T09:05:23;33.20;17.90
2751;DHT22;1383;48.362;10.908;2022-08-03T09:08:10;33.20;18.10
2751;DHT22;1383;48.362;10.908;2022-08-03T09:10:37;33.40;16.80
2751;DHT22;1383;48.362;10.908;2022-08-03T09:13:03;33.30;17.20
2751;DHT22;1383;48.362;10.908;2022-08-03T09:15:32;32.70;17.00
2751;DHT22;1383;48.362;10.908;2022-08-03T09:18:00;32.70;17.10
2751;DHT22;1383;48.362;10.908;2022-08-03T09:20:32;32.90;16.10
2751;DHT22;1383;48.362;10.908;2022-08-03T09:23:04;33.20;16.10
2751;DHT22;1383;48.362;10.908;2022-08-03T09:25:57;33.40;15.70
2751;DHT22;1383;48.362;10.908;2022-08-03T09:28:33;32.90;15.30
2751;DHT22;1383;48.362;10.908;2022-08-03T09:34:00;33.60;14.80
2751;DHT22;1383;48.362;10.908;2022-08-03T09:36:49;33.90;14.00
2751;DHT22;1383;48.362;10.908;2022-08-03T09:39:21;34.10;13.70
2751;DHT22;1383;48.362;10.908;2022-08-03T09:42:15;34.60;13.80
2751;DHT22;1383;48.362;10.908;2022-08-03T09:44:50;34.90;12.50
2751;DHT22;1383;48.362;10.908;2022-08-03T09:47:28;34.30;14.30
2751;DHT22;1383;48.362;10.908;2022-08-03T09:50:01;33.70;14.20
2751;DHT22;1383;48.362;10.908;2022-08-03T09:52:37;33.50;13.30
2751;DHT22;1383;48.362;10.908;2022-08-03T09:55:18;33.90;13.40
2751;DHT22;1383;48.362;10.908;2022-08-03T09:58:10;34.80;13.20
2751;DHT22;1383;48.362;10.908;2022-08-03T10:00:52;35.00;12.40
2751;DHT22;1383;48.362;10.908;2022-08-03T10:03:21;34.50;11.40
2751;DHT22;1383;48.362;10.908;2022-08-03T10:05:48;34.20;11.90
2751;DHT22;1383;48.362;10.908;2022-08-03T10:08:16;34.80;12.20
2751;DHT22;1383;48.362;10.908;2022-08-03T10:10:45;34.70;12.90
2751;DHT22;1383;48.362;10.908;2022-08-03T10:13:13;34.90;12.40
2751;DHT22;1383;48.362;10.908;2022-08-03T10:15:41;35.50;12.70
2751;DHT22;1383;48.362;10.908;2022-08-03T10:18:29;35.90;11.50
2751;DHT22;1383;48.362;10.908;2022-08-03T10:21:02;36.10;11.90
2751;DHT22;1383;48.362;10.908;2022-08-03T10:23:33;36.40;11.50
2751;DHT22;1383;48.362;10.908;2022-08-03T10:26:06;36.30;11.40
2751;DHT22;1383;48.362;10.908;2022-08-03T10:28:35;36.50;11.30
2751;DHT22;1383;48.362;10.908;2022-08-03T10:31:10;37.10;10.90
2751;DHT22;1383;48.362;10.908;2022-08-03T10:33:42;37.60;10.20
2751;DHT22;1383;48.362;10.908;2022-08-03T10:36:19;37.70;9.40
2751;DHT22;1383;48.362;10.908;2022-08-03T10:38:50;36.60;8.90
2751;DHT22;1383;48.362;10.908;2022-08-03T10:41:23;36.60;9.40
2751;DHT22;1383;48.362;10.908;2022-08-03T10:44:10;36.60;9.40
2751;DHT22;1383;48.362;10.908;2022-08-03T10:46:39;36.20;9.70
2751;DHT22;1383;48.362;10.908;2022-08-03T10:49:15;36.60;9.40
2751;DHT22;1383;48.362;10.908;2022-08-03T10:51:59;36.80;9.10
2751;DHT22;1383;48.362;10.908;2022-08-03T11:00:13;35.80;10.30
2751;DHT22;1383;48.362;10.908;2022-08-03T11:03:07;35.30;10.10
2751;DHT22;1383;48.362;10.908;2022-08-03T11:05:42;34.60;10.60
2751;DHT22;1383;48.362;10.908;2022-08-03T11:08:28;34.00;10.90
2751;DHT22;1383;48.362;10.908;2022-08-03T11:11:01;33.40;11.00
2751;DHT22;1383;48.362;10.908;2022-08-03T11:13:29;33.10;11.40
2751;DHT22;1383;48.362;10.908;2022-08-03T11:16:01;32.90;11.70
2751;DHT22;1383;48.362;10.908;2022-08-03T11:18:33;32.10;11.10
2751;DHT22;1383;48.362;10.908;2022-08-03T11:21:01;31.50;10.30
2751;DHT22;1383;48.362;10.908;2022-08-03T11:23:47;31.20;10.60
2751;DHT22;1383;48.362;10.908;2022-08-03T11:26:33;31.50;11.80
2751;DHT22;1383;48.362;10.908;2022-08-03T11:29:25;31.40;12.10
2751;DHT22;1383;48.362;10.908;2022-08-03T11:31:52;31.50;12.20
2751;DHT22;1383;48.362;10.908;2022-08-03T11:34:19;31.40;12.10
2751;DHT22;1383;48.362;10.908;2022-08-03T11:37:18;31.20;12.90
2751;DHT22;1383;48.362;10.908;2022-08-03T11:39:49;31.00;13.50
2751;DHT22;1383;48.362;10.908;2022-08-03T11:44:50;31.20;13.10
2751;DHT22;1383;48.362;10.908;2022-08-03T11:47:22;31.30;13.80
2751;DHT22;1383;48.362;10.908;2022-08-03T11:49:50;31.20;14.10
2751;DHT22;1383;48.362;10.908;2022-08-03T11:52:19;30.90;14.10
2751;DHT22;1383;48.362;10.908;2022-08-03T11:54:54;31.00;14.00
2751;DHT22;1383;48.362;10.908;2022-08-03T11:57:30;31.00;13.90
2751;DHT22;1383;48.362;10.908;2022-08-03T12:00:28;31.10;14.20
2751;DHT22;1383;48.362;10.908;2022-08-03T12:05:53;31.10;13.60
2751;DHT22;1383;48.362;10.908;2022-08-03T12:10:54;31.00;13.00
2751;DHT22;1383;48.362;10.908;2022-08-03T12:13:22;31.10;12.00
2751;DHT22;1383;48.362;10.908;2022-08-03T12:16:09;31.20;12.00
2751;DHT22;1383;48.362;10.908;2022-08-03T12:18:36;31.10;12.60
2751;DHT22;1383;48.362;10.908;2022-08-03T12:21:10;31.00;13.20
2751;DHT22;1383;48.362;10.908;2022-08-03T12:23:37;31.10;13.00
2751;DHT22;1383;48.362;10.908;2022-08-03T12:26:07;30.90;12.50
2751;DHT22;1383;48.362;10.908;2022-08-03T12:28:35;30.70;12.60
2751;DHT22;1383;48.362;10.908;2022-08-03T12:31:07;30.70;13.60
2751;DHT22;1383;48.362;10.908;2022-08-03T12:34:01;30.80;12.50
2751;DHT22;1383;48.362;10.908;2022-08-03T12:36:30;31.00;12.70
2751;DHT22;1383;48.362;10.908;2022-08-03T12:39:00;31.10;11.90
2751;DHT22;1383;48.362;10.908;2022-08-03T12:41:32;31.10;11.80
2751;DHT22;1383;48.362;10.908;2022-08-03T12:44:01;31.20;12.00
2751;DHT22;1383;48.362;10.908;2022-08-03T12:46:33;31.30;12.10
2751;DHT22;1383;48.362;10.908;2022-08-03T12:49:09;31.40;12.10
2751;DHT22;1383;48.362;10.908;2022-08-03T12:54:18;31.50;11.70
2751;DHT22;1383;48.362;10.908;2022-08-03T12:57:01;31.60;11.50
2751;DHT22;1383;48.362;10.908;2022-08-03T12:59:32;31.60;11.10
2751;DHT22;1383;48.362;10.908;2022-08-03T13:02:16;31.60;10.80
2751;DHT22;1383;48.362;10.908;2022-08-03T13:04:45;31.70;10.80
2751;DHT22;1383;48.362;10.908;2022-08-03T13:07:14;31.70;10.60
2751;DHT22;1383;48.362;10.908;2022-08-03T13:09:46;31.80;11.20
2751;DHT22;1383;48.362;10.908;2022-08-03T13:14:49;31.60;11.10
2751;DHT22;1383;48.362;10.908;2022-08-03T13:17:17;31.50;10.50
2751;DHT22;1383;48.362;10.908;2022-08-03T13:19:46;31.50;10.90
2751;DHT22;1383;48.362;10.908;2022-08-03T13:24:49;31.50;11.20
2751;DHT22;1383;48.362;10.908;2022-08-03T13:27:16;31.50;10.70
2751;DHT22;1383;48.362;10.908;2022-08-03T13:30:03;31.60;11.10
2751;DHT22;1383;48.362;10.908;2022-08-03T13:32:31;31.60;10.20
2751;DHT22;1383;48.362;10.908;2022-08-03T13:34:58;31.60;9.60
2751;DHT22;1383;48.362;10.908;2022-08-03T13:37:25;31.60;10.10
2751;DHT22;1383;48.362;10.908;2022-08-03T13:39:53;31.60;10.50
2751;DHT22;1383;48.362;10.908;2022-08-03T13:42:32;31.50;10.00
2751;DHT22;1383;48.362;10.908;2022-08-03T13:44:59;31.50;10.00
2751;DHT22;1383;48.362;10.908;2022-08-03T13:47:26;31.40;10.30
2751;DHT22;1383;48.362;10.908;2022-08-03T13:49:53;31.30;9.80
2751;DHT22;1383;48.362;10.908;2022-08-03T13:52:32;31.20;10.30
2751;DHT22;1383;48.362;10.908;2022-08-03T13:55:04;31.30;10.70
2751;DHT22;1383;48.362;10.908;2022-08-03T13:57:31;31.40;10.40
2751;DHT22;1383;48.362;10.908;2022-08-03T14:00:19;31.50;9.50
2751;DHT22;1383;48.362;10.908;2022-08-03T14:02:58;31.60;9.90
2751;DHT22;1383;48.362;10.908;2022-08-03T14:05:41;31.70;9.70
2751;DHT22;1383;48.362;10.908;2022-08-03T14:08:08;31.70;9.80
2751;DHT22;1383;48.362;10.908;2022-08-03T14:10:37;31.80;9.60
2751;DHT22;1383;48.362;10.908;2022-08-03T14:13:05;31.80;9.00
2751;DHT22;1383;48.362;10.908;2022-08-03T14:15:32;31.80;9.20
2751;DHT22;1383;48.362;10.908;2022-08-03T14:18:05;31.80;9.70
2751;DHT22;1383;48.362;10.908;2022-08-03T14:20:32;31.90;9.40
2751;DHT22;1383;48.362;10.908;2022-08-03T14:23:14;32.00;9.50
2751;DHT22;1383;48.362;10.908;2022-08-03T14:25:41;32.00;9.30
2751;DHT22;1383;48.362;10.908;2022-08-03T14:28:17;32.10;8.40
2751;DHT22;1383;48.362;10.908;2022-08-03T14:30:44;32.10;8.50
2751;DHT22;1383;48.362;10.908;2022-08-03T14:33:11;32.20;8.70
2751;DHT22;1383;48.362;10.908;2022-08-03T14:35:38;32.20;8.70
2751;DHT22;1383;48.362;10.908;2022-08-03T14:38:05;32.30;8.40
2751;DHT22;1383;48.362;10.908;2022-08-03T14:40:32;32.30;9.50
2751;DHT22;1383;48.362;10.908;2022-08-03T14:42:59;32.10;9.20
2751;DHT22;1383;48.362;10.908;2022-08-03T14:45:25;32.20;9.30
2751;DHT22;1383;48.362;10.908;2022-08-03T14:47:52;32.10;8.60
2751;DHT22;1383;48.362;10.908;2022-08-03T14:50:39;32.00;8.70
2751;DHT22;1383;48.362;10.908;2022-08-03T14:53:14;32.00;8.10
2751;DHT22;1383;48.362;10.908;2022-08-03T14:55:43;31.90;8.40
2751;DHT22;1383;48.362;10.908;2022-08-03T14:58:21;31.90;8.30
2751;DHT22;1383;48.362;10.908;2022-08-03T15:00:50;32.00;8.80
2751;DHT22;1383;48.362;10.908;2022-08-03T15:03:18;31.90;8.90
2751;DHT22;1383;48.362;10.908;2022-08-03T15:05:50;31.80;8.50
2751;DHT22;1383;48.362;10.908;2022-08-03T15:08:17;31.90;8.90
2751;DHT22;1383;48.362;10.908;2022-08-03T15:10:44;31.90;9.20
2751;DHT22;1383;48.362;10.908;2022-08-03T15:13:13;31.90;9.90
2751;DHT22;1383;48.362;10.908;2022-08-03T15:15:40;32.00;8.80
2751;DHT22;1383;48.362;10.908;2022-08-03T15:18:08;32.00;8.90
2751;DHT22;1383;48.362;10.908;2022-08-03T15:20:35;32.00;8.90
2751;DHT22;1383;48.362;10.908;2022-08-03T15:23:13;31.90;8.00
2751;DHT22;1383;48.362;10.908;2022-08-03T15:25:40;32.00;8.40
2751;DHT22;1383;48.362;10.908;2022-08-03T15:28:27;31.80;8.40
2751;DHT22;1383;48.362;10.908;2022-08-03T15:30:54;31.70;8.60
2751;DHT22;1383;48.362;10.908;2022-08-03T15:33:21;31.60;8.80
2751;DHT22;1383;48.362;10.908;2022-08-03T15:35:48;31.70;9.00
2751;DHT22;1383;48.362;10.908;2022-08-03T15:38:15;31.70;9.20
2751;DHT22;1383;48.362;10.908;2022-08-03T15:40:42;31.70;9.40
2751;DHT22;1383;48.362;10.908;2022-08-03T15:43:09;31.80;8.80
2751;DHT22;1383;48.362;10.908;2022-08-03T15:45:36;31.80;8.70
2751;DHT22;1383;48.362;10.908;2022-08-03T15:48:04;31.70;8.70
2751;DHT22;1383;48.362;10.908;2022-08-03T15:50:31;31.70;9.00
2751;DHT22;1383;48.362;10.908;2022-08-03T15:52:58;31.70;9.20
2751;DHT22;1383;48.362;10.908;2022-08-03T15:55:25;31.60;8.70
2751;DHT22;1383;48.362;10.908;2022-08-03T15:57:52;31.70;8.70
2751;DHT22;1383;48.362;10.908;2022-08-03T16:00:39;31.60;8.70
2751;DHT22;1383;48.362;10.908;2022-08-03T16:03:06;31.60;9.00
2751;DHT22;1383;48.362;10.908;2022-08-03T16:05:33;31.50;9.00
2751;DHT22;1383;48.362;10.908;2022-08-03T16:08:00;31.50;8.00
2751;DHT22;1383;48.362;10.908;2022-08-03T16:10:31;31.40;8.20
2751;DHT22;1383;48.362;10.908;2022-08-03T16:12:58;31.40;8.30
2751;DHT22;1383;48.362;10.908;2022-08-03T16:15:26;31.30;8.50
2751;DHT22;1383;48.362;10.908;2022-08-03T16:17:53;31.30;8.10
2751;DHT22;1383;48.362;10.908;2022-08-03T16:20:20;31.30;7.90
2751;DHT22;1383;48.362;10.908;2022-08-03T16:23:01;31.30;8.70
2751;DHT22;1383;48.362;10.908;2022-08-03T16:25:39;31.40;8.50
2751;DHT22;1383;48.362;10.908;2022-08-03T16:28:07;31.40;9.00
2751;DHT22;1383;48.362;10.908;2022-08-03T16:30:41;31.30;8.90
2751;DHT22;1383;48.362;10.908;2022-08-03T16:33:09;31.30;8.50
2751;DHT22;1383;48.362;10.908;2022-08-03T16:35:42;31.20;9.00
2751;DHT22;1383;48.362;10.908;2022-08-03T16:38:09;31.20;8.20
2751;DHT22;1383;48.362;10.908;2022-08-03T16:40:43;31.20;8.20
2751;DHT22;1383;48.362;10.908;2022-08-03T16:43:14;31.10;8.10
2751;DHT22;1383;48.362;10.908;2022-08-03T16:45:45;31.10;8.50
2751;DHT22;1383;48.362;10.908;2022-08-03T16:48:13;31.00;8.70
2751;DHT22;1383;48.362;10.908;2022-08-03T16:50:40;31.00;8.50